Time;durP1;ratioP1;P1;durP2;ratioP2;P2;SDS_P1;SDS_P2;PMS_P1;PMS_P2;Temp;Humidity;BMP_temperature;BMP_pressure;BME280_temperature;BME280_humidity;BME280_pressure;Samples;Min_cycle;Max_cycle;Signal;HPM_P1;HPM_P2
2022/06/15 06:07:42;;;;;;;143.25;37.80;;;;;;;17.71;57.92;96578.53;2092244;27;20552;-60
2022/06/15 06:08:44;;;;;;;121.78;18.85;;;;;;;17.87;57.98;96590.59;2088764;28;20195;-60
2022/06/15 06:09:45;;;;;;;134.63;42.90;;;;;;;17.99;57.72;96586.22;2092089;28;20188;-60
2022/06/15 06:10:47;;;;;;;160.75;90.88;;;;;;;18.07;56.82;96591.75;2086242;28;20214;-61
2022/06/15 06:11:49;;;;;;;159.30;85.03;;;;;;;18.19;56.69;96587.34;2088091;28;20195;-60
2022/06/15 06:12:50;;;;;;;157.25;77.57;;;;;;;18.34;55.31;96588.81;2075192;28;20612;-60
2022/06/15 06:13:52;;;;;;;180.68;110.97;;;;;;;18.35;55.20;96576.44;2075661;28;20258;-61
2022/06/15 06:14:53;;;;;;;261.92;233.30;;;;;;;18.55;54.43;96582.81;2070818;28;20190;-60
2022/06/15 06:15:56;;;;;;;375.00;339.50;;;;;;;18.68;54.88;96585.34;2071984;28;20498;-60
2022/06/15 06:16:58;;;;;;;377.77;342.40;;;;;;;18.70;54.60;96573.69;2064840;28;20202;-60
2022/06/15 06:18:01;;;;;;;473.23;430.50;;;;;;;18.82;54.23;96565.75;2079421;28;20204;-60
2022/06/15 06:19:03;;;;;;;215.40;177.50;;;;;;;18.93;52.17;96582.47;2076219;28;20204;-61
2022/06/15 06:20:05;;;;;;;219.20;187.48;;;;;;;19.12;52.38;96586.28;2073357;28;20204;-60
2022/06/15 06:49:21;;;;;;;170.95;117.95;;;;;;;20.49;48.27;96584.75;2086239;28;20567;-56
2022/06/15 06:50:23;;;;;;;157.50;86.50;;;;;;;20.55;47.86;96594.81;2082210;28;20200;-56
2022/06/15 06:51:26;;;;;;;134.82;45.42;;;;;;;20.46;48.20;96569.09;2082015;28;20197;-56
2022/06/15 06:52:27;;;;;;;131.23;40.95;;;;;;;20.81;47.64;96572.31;2072543;28;20259;-56
2022/06/15 06:53:29;;;;;;;134.50;50.42;;;;;;;20.96;47.69;96586.06;2074180;28;20197;-56
2022/06/15 06:54:31;;;;;;;138.65;52.78;;;;;;;21.02;47.69;96588.19;2077350;28;20852;-56
2022/06/15 06:55:33;;;;;;;139.43;57.90;;;;;;;21.09;47.58;96593.78;2071129;28;20830;-57
2022/06/15 06:56:35;;;;;;;168.25;90.43;;;;;;;21.12;47.54;96593.53;2069243;28;20199;-56
2022/06/15 06:57:37;;;;;;;155.95;96.90;;;;;;;21.03;47.24;96600.50;2068829;28;20235;-57
2022/06/15 06:58:39;;;;;;;157.07;95.85;;;;;;;20.96;47.50;96594.03;2081723;28;20577;-56
2022/06/15 06:59:41;;;;;;;162.88;108.10;;;;;;;20.96;48.13;96597.53;2076553;28;20197;-56
2022/06/15 07:00:42;;;;;;;159.70;93.47;;;;;;;21.04;46.93;96580.94;2073077;28;20558;-56
2022/06/15 07:01:45;;;;;;;161.52;101.15;;;;;;;21.31;47.21;96593.56;2062305;28;20198;-57
2022/06/15 07:02:47;;;;;;;143.48;62.10;;;;;;;21.37;45.31;96595.69;2080744;28;20644;-56
2022/06/15 07:03:53;;;;;;;137.30;57.53;;;;;;;21.36;46.07;96596.66;2074467;28;20251;-56
2022/06/15 07:04:55;;;;;;;140.73;61.35;;;;;;;21.49;46.46;96588.41;2072783;28;20194;-56
2022/06/15 07:06:15;;;;;;;143.65;53.00;;;;;;;21.39;45.90;96589.41;2074210;28;20742;-56
2022/06/15 07:07:16;;;;;;;139.90;52.22;;;;;;;21.27;45.90;96597.47;2069346;28;20307;-56
2022/06/15 07:08:18;;;;;;;132.55;51.50;;;;;;;21.34;45.75;96590.66;2083150;28;20197;-57
2022/06/15 07:09:19;;;;;;;149.15;55.47;;;;;;;21.36;45.61;96587.84;2076981;28;20276;-56
2022/06/15 07:10:21;;;;;;;137.07;53.75;;;;;;;21.42;46.15;96595.28;2072888;28;20193;-56
2022/06/15 07:11:23;;;;;;;143.07;59.85;;;;;;;21.32;46.45;96579.31;2075572;28;20204;-56
2022/06/15 07:12:24;;;;;;;136.10;54.83;;;;;;;21.63;46.02;96600.47;2074803;28;20213;-57
2022/06/15 07:13:27;;;;;;;131.90;52.58;;;;;;;21.77;45.46;96596.56;2071388;28;20194;-56
2022/06/15 07:14:29;;;;;;;136.00;52.55;;;;;;;21.63;46.14;96595.16;2072363;28;20194;-56
2022/06/15 07:15:30;;;;;;;137.30;52.65;;;;;;;21.72;46.59;96598.00;2071127;28;20201;-57
2022/06/15 07:16:32;;;;;;;142.30;67.03;;;;;;;21.82;45.91;96601.47;2071034;28;20206;-56
2022/06/15 07:50:21;;;;;;;301.17;273.25;;;;;;;23.30;39.97;96611.63;2070309;28;20201;-56
2022/06/15 07:51:43;;;;;;;305.92;277.05;;;;;;;23.18;40.54;96596.00;2070577;28;20780;-56
2022/06/15 07:52:48;;;;;;;236.40;212.05;;;;;;;23.30;40.03;96610.81;2061464;28;20226;-57
2022/06/15 07:53:49;;;;;;;160.98;95.35;;;;;;;23.29;39.66;96609.13;2062046;28;20289;-56
2022/06/15 07:54:51;;;;;;;150.15;76.97;;;;;;;23.26;40.33;96612.91;2062595;28;20205;-56
2022/06/15 07:55:54;;;;;;;212.88;189.98;;;;;;;23.29;41.05;96609.94;2062530;28;20205;-57
2022/06/15 07:56:56;;;;;;;278.42;251.45;;;;;;;23.28;40.85;96621.56;2054152;28;20237;-56
2022/06/15 07:58:00;;;;;;;138.70;60.55;;;;;;;23.18;39.87;96607.47;2069941;28;20217;-56
2022/06/15 07:59:02;;;;;;;198.30;176.65;;;;;;;23.39;40.81;96609.91;2061154;28;20202;-61
2022/06/15 08:00:06;;;;;;;231.07;206.65;;;;;;;23.15;41.22;96615.78;2062007;28;20782;-61
2022/06/15 08:01:08;;;;;;;174.75;138.50;;;;;;;23.56;41.62;96618.06;2061450;28;20198;-60
2022/06/15 08:02:10;;;;;;;178.57;146.98;;;;;;;23.57;41.37;96611.75;2062098;28;20237;-60
2022/06/15 08:03:14;;;;;;;181.90;148.77;;;;;;;23.88;40.51;96617.53;2061914;28;20202;-61
2022/06/15 08:04:16;;;;;;;205.88;183.93;;;;;;;23.85;40.68;96614.34;2062646;28;20198;-60
2022/06/15 08:05:19;;;;;;;201.40;180.13;;;;;;;24.01;40.47;96609.19;2061620;28;20195;-60
2022/06/15 08:06:21;;;;;;;180.05;151.02;;;;;;;23.99;40.91;96608.50;2061448;28;20199;-60
2022/06/15 08:07:23;;;;;;;219.45;196.90;;;;;;;23.85;41.10;96614.34;2061394;28;20570;-60
2022/06/15 08:08:25;;;;;;;197.77;176.32;;;;;;;23.96;40.87;96614.16;2060847;28;20285;-60
2022/06/15 08:09:27;;;;;;;199.27;177.57;;;;;;;24.05;40.51;96615.88;2061775;28;20210;-60
2022/06/15 08:10:29;;;;;;;170.70;116.90;;;;;;;24.12;40.13;96618.78;2062499;28;20202;-61
2022/06/15 08:11:30;;;;;;;224.18;201.40;;;;;;;23.98;40.61;96609.50;2061520;28;20656;-60
2022/06/15 08:12:32;;;;;;;153.50;91.82;;;;;;;23.72;40.81;96604.03;2061919;28;20229;-60
2022/06/15 08:13:34;;;;;;;111.93;28.40;;;;;;;24.11;39.91;96606.41;2061818;28;20283;-60
2022/06/15 08:14:38;;;;;;;129.90;52.53;;;;;;;24.35;40.00;96604.94;2061825;28;20243;-60
2022/06/15 08:15:41;;;;;;;133.82;57.50;;;;;;;24.53;39.90;96611.09;2062373;28;20207;-60
2022/06/15 08:16:42;;;;;;;101.38;11.50;;;;;;;24.46;38.90;96602.84;2062054;28;20845;-60
2022/06/15 08:17:52;;;;;;;118.10;21.40;;;;;;;24.65;39.24;96613.53;2062305;28;20234;-61
2022/06/15 08:19:01;;;;;;;105.85;14.73;;;;;;;24.45;39.38;96611.88;2061845;28;20565;-60
2022/06/15 08:20:13;;;;;;;119.18;42.33;;;;;;;24.65;39.37;96614.34;2061955;28;20201;-60
2022/06/15 08:21:21;;;;;;;200.98;166.68;;;;;;;24.65;38.99;96617.00;2061615;28;20679;-57
2022/06/15 08:22:25;;;;;;;107.35;22.70;;;;;;;24.46;39.14;96602.03;2061895;28;20544;-57
2022/06/15 08:23:31;;;;;;;187.18;157.23;;;;;;;24.44;38.14;96594.19;2061300;28;20203;-56
2022/06/15 08:24:32;;;;;;;125.20;39.90;;;;;;;24.56;38.59;96610.75;2062295;28;20709;-57
2022/06/15 08:25:44;;;;;;;133.48;64.45;;;;;;;24.73;38.48;96601.03;2062302;28;20645;-56
2022/06/15 08:26:46;;;;;;;111.43;23.38;;;;;;;25.23;38.55;96609.25;2061556;28;20692;-56
2022/06/15 08:27:49;;;;;;;118.53;29.83;;;;;;;25.49;37.55;96609.22;2061760;28;20238;-56
2022/06/15 08:28:56;;;;;;;166.82;124.40;;;;;;;25.40;36.57;96596.84;2060721;28;20210;-56
2022/06/15 08:29:58;;;;;;;149.18;87.20;;;;;;;25.71;37.02;96588.22;2060524;28;20554;-56
2022/06/15 08:31:00;;;;;;;105.18;19.85;;;;;;;25.97;36.65;96605.97;2062224;28;20198;-56
2022/06/15 08:32:02;;;;;;;121.47;44.28;;;;;;;26.15;36.57;96613.84;2061721;28;20253;-56
2022/06/15 08:33:05;;;;;;;118.15;40.90;;;;;;;26.35;35.74;96617.03;2061974;28;20202;-56
2022/06/15 08:34:07;;;;;;;100.90;17.58;;;;;;;26.19;35.63;96616.00;2062280;28;20209;-56
2022/06/15 08:35:09;;;;;;;229.88;199.15;;;;;;;26.24;36.19;96613.69;2061786;28;20273;-57
2022/06/15 08:36:12;;;;;;;179.52;96.13;;;;;;;26.18;36.10;96621.53;2061999;28;20222;-56
2022/06/15 08:37:16;;;;;;;132.00;26.00;;;;;;;25.89;36.02;96620.13;2061823;28;20587;-56
2022/06/15 08:38:20;;;;;;;163.98;94.97;;;;;;;25.53;36.35;96620.44;2061311;28;20225;-56
2022/06/15 08:39:22;;;;;;;131.88;38.20;;;;;;;25.61;36.67;96612.44;2061765;28;20206;-56
2022/06/15 08:40:30;;;;;;;170.52;78.35;;;;;;;25.91;36.30;96610.97;2062114;28;20210;-56
2022/06/15 08:42:09;;;;;;;160.20;106.88;;;;;;;26.27;35.70;96617.88;2061912;28;20202;-56
2022/06/15 08:43:22;;;;;;;118.47;32.10;;;;;;;26.75;33.73;96617.16;2058699;28;20222;-57
2022/06/15 08:44:45;;;;;;;124.45;45.35;;;;;;;26.75;32.83;96611.81;2060720;28;20612;-57
2022/06/15 08:45:52;;;;;;;109.60;19.38;;;;;;;26.67;32.74;96592.03;2061647;28;20502;-57
2022/06/15 08:47:28;;;;;;;195.15;159.00;;;;;;;26.99;30.87;96613.56;2061077;28;20705;-57
2022/06/15 08:48:51;;;;;;;195.68;165.45;;;;;;;26.77;31.86;96613.31;2069494;28;20201;-57
2022/06/15 08:50:12;;;;;;;172.02;122.88;;;;;;;26.98;31.82;96618.09;2066489;28;20195;-57
2022/06/15 08:51:25;;;;;;;131.45;50.97;;;;;;;27.11;32.88;96614.03;2061633;28;20195;-57
2022/06/15 08:52:32;;;;;;;116.85;26.05;;;;;;;26.82;32.88;96618.97;2061370;28;20222;-56
2022/06/15 08:54:02;;;;;;;114.88;22.30;;;;;;;27.02;33.75;96605.19;2060946;28;20527;-57
2022/06/15 08:55:11;;;;;;;114.95;14.85;;;;;;;27.00;32.96;96612.56;2061101;28;20206;-57
2022/06/15 08:56:21;;;;;;;146.65;73.20;;;;;;;27.16;31.75;96617.88;2061950;28;20203;-57
2022/06/15 08:57:54;;;;;;;134.07;41.60;;;;;;;27.25;31.68;96617.81;2061610;28;20886;-57
2022/06/15 08:59:02;;;;;;;107.32;13.77;;;;;;;27.40;32.25;96620.63;2055408;28;20745;-57
2022/06/15 09:00:15;;;;;;;118.85;35.75;;;;;;;27.28;31.18;96602.22;2056516;28;20202;-57
2022/06/15 09:01:36;;;;;;;129.07;49.97;;;;;;;27.47;30.18;96624.28;2056162;28;20202;-57
2022/06/15 09:31:25;;;;;;;145.18;74.65;;;;;;;28.29;28.79;96634.50;2102049;27;20554;-57
2022/06/15 09:32:34;;;;;;;144.23;81.43;;;;;;;28.50;28.92;96639.16;2085715;27;20686;-57
2022/06/15 09:33:43;;;;;;;118.45;32.45;;;;;;;28.49;28.01;96637.53;2082001;28;20197;-58
2022/06/15 09:34:52;;;;;;;118.97;35.33;;;;;;;28.63;28.45;96632.34;2081195;28;20226;-57
2022/06/15 09:36:02;;;;;;;122.78;34.83;;;;;;;28.00;29.23;96627.97;2080106;28;20556;-57
2022/06/15 09:37:11;;;;;;;123.55;40.15;;;;;;;28.30;29.43;96630.81;2080895;28;20216;-58
2022/06/15 09:38:15;;;;;;;134.90;57.78;;;;;;;28.26;30.44;96623.28;2090736;28;20224;-58
2022/06/15 09:39:19;;;;;;;111.20;21.08;;;;;;;28.35;31.52;96624.88;2091342;28;20218;-57
2022/06/15 09:40:23;;;;;;;127.63;36.25;;;;;;;28.39;31.38;96634.25;2087209;28;20205;-57
2022/06/15 09:41:55;;;;;;;118.57;25.92;;;;;;;28.34;31.48;96629.41;2085120;28;20708;-57
2022/06/15 09:43:22;;;;;;;112.47;19.00;;;;;;;28.40;31.41;96637.75;2086587;28;20239;-57
2022/06/15 09:44:34;;;;;;;108.43;18.23;;;;;;;28.94;30.95;96632.22;2087643;28;20846;-57
2022/06/15 09:46:15;;;;;;;104.10;11.13;;;;;;;29.44;31.21;96626.28;2088887;28;20559;-58
2022/06/15 09:48:01;;;;;;;122.00;39.03;;;;;;;28.10;31.36;96629.59;2088990;28;20314;-58
2022/06/15 09:49:37;;;;;;;119.15;38.40;;;;;;;28.43;31.33;96634.69;2087518;28;20326;-58
2022/06/15 09:51:37;;;;;;;115.45;31.35;;;;;;;28.88;31.04;96632.13;2090006;28;20196;-57
2022/06/15 09:53:00;;;;;;;117.40;31.17;;;;;;;29.09;31.08;96634.06;2050154;28;20227;-58
2022/06/15 09:54:21;;;;;;;127.93;23.20;;;;;;;29.26;31.13;96626.66;2089769;28;20246;-58
2022/06/15 09:55:29;;;;;;;115.60;30.63;;;;;;;29.36;31.13;96635.28;2091723;28;20685;-57
2022/06/15 09:56:31;;;;;;;111.13;21.17;;;;;;;29.50;30.97;96630.91;2086973;28;20247;-58
2022/06/15 09:57:37;;;;;;;116.35;24.65;;;;;;;29.40;30.82;96612.38;2090839;28;20211;-58
2022/06/15 09:58:46;;;;;;;110.90;23.30;;;;;;;29.88;30.51;96628.06;2090681;28;20196;-58
2022/06/15 09:59:48;;;;;;;175.93;107.50;;;;;;;28.97;29.39;96631.00;2088288;28;20204;-58
2022/06/15 10:00:49;;;;;;;112.60;16.10;;;;;;;27.75;31.68;96627.31;2090046;28;20195;-57
2022/06/15 10:01:52;;;;;;;110.15;15.55;;;;;;;28.30;31.83;96629.94;2081943;28;20784;-58
2022/06/15 10:03:01;;;;;;;115.72;20.85;;;;;;;29.10;31.40;96624.97;2083561;28;20216;-58
2022/06/15 10:04:05;;;;;;;109.90;16.80;;;;;;;29.31;29.61;96613.50;2086926;28;20201;-57
2022/06/15 10:05:32;;;;;;;101.72;10.15;;;;;;;29.16;30.65;96630.44;2084412;28;20717;-58
2022/06/15 10:06:51;;;;;;;112.25;18.90;;;;;;;29.03;29.93;96505.81;2089502;28;20196;-58
2022/06/15 10:07:56;;;;;;;114.22;22.02;;;;;;;29.68;29.67;96629.66;2089144;28;20252;-58
2022/06/15 10:09:01;;;;;;;103.32;12.70;;;;;;;29.72;29.81;96629.06;2090592;28;20196;-58
2022/06/15 10:10:18;;;;;;;103.40;14.10;;;;;;;29.55;29.94;96590.00;2090091;28;20211;-58
2022/06/15 10:11:46;;;;;;;103.27;9.70;;;;;;;29.89;30.25;96629.72;2089197;28;20258;-58
2022/06/15 10:12:58;;;;;;;100.87;9.20;;;;;;;30.25;29.93;96633.38;2090530;28;20450;-58
2022/06/15 10:14:25;;;;;;;118.90;36.63;;;;;;;30.09;29.12;96629.06;2090434;28;20432;-58
2022/06/15 10:15:32;;;;;;;173.48;130.18;;;;;;;30.07;29.19;96631.97;2089877;28;20433;-58
2022/06/15 10:16:35;;;;;;;203.03;177.47;;;;;;;30.10;28.44;96631.56;2087192;28;20226;-58
2022/06/15 10:17:40;;;;;;;198.53;176.87;;;;;;;30.12;29.02;96628.72;2088621;28;20469;-58
2022/06/15 10:18:51;;;;;;;199.03;175.00;;;;;;;30.64;28.00;96634.75;2092496;28;20425;-58
2022/06/15 10:19:53;;;;;;;241.80;218.03;;;;;;;30.48;28.51;96633.19;2092332;28;20776;-58
2022/06/15 10:21:13;;;;;;;172.53;138.67;;;;;;;31.02;27.89;96637.09;2087854;28;20421;-58
2022/06/15 10:22:25;;;;;;;226.13;203.33;;;;;;;30.73;28.69;96633.56;2088694;28;20456;-58
2022/06/15 10:23:37;;;;;;;227.73;204.97;;;;;;;30.72;27.85;96640.00;2090497;28;21153;-58
2022/06/15 10:24:40;;;;;;;214.40;192.47;;;;;;;30.80;28.18;96633.63;2092206;28;20437;-58
2022/06/15 10:25:49;;;;;;;128.77;30.57;;;;;;;30.22;26.75;96636.44;2088630;28;20830;-58
2022/06/15 10:27:20;;;;;;;132.10;47.70;;;;;;;30.46;26.76;96627.97;2092424;28;20449;-58
2022/06/15 10:28:40;;;;;;;122.33;29.17;;;;;;;30.58;25.53;96633.66;2091569;28;20437;-58
2022/06/15 10:29:54;;;;;;;115.63;20.60;;;;;;;30.82;26.21;96644.19;2088007;28;20425;-58
2022/06/15 10:31:01;;;;;;;106.57;14.93;;;;;;;31.02;26.63;96638.94;2088264;28;20809;-58
2022/06/15 10:32:08;;;;;;;145.90;85.00;;;;;;;31.39;27.19;96639.59;2089253;28;20454;-59
2022/06/15 10:33:19;;;;;;;139.73;67.90;;;;;;;31.24;27.43;96635.16;2090209;28;20790;-58
2022/06/15 10:34:33;;;;;;;180.90;134.93;;;;;;;31.37;27.78;96637.06;2085946;28;20445;-58
2022/06/15 10:35:35;;;;;;;230.97;207.47;;;;;;;31.44;28.05;96645.22;2090015;28;20427;-59
2022/06/15 10:36:37;;;;;;;234.63;211.43;;;;;;;31.53;28.14;96630.50;2090225;28;20429;-58
2022/06/15 10:37:48;;;;;;;216.23;194.37;;;;;;;31.53;28.13;96635.09;2086840;28;20827;-58
2022/06/15 10:39:01;;;;;;;249.23;225.27;;;;;;;31.68;28.05;96629.53;2088561;28;20421;-58
2022/06/15 10:40:39;;;;;;;177.80;145.47;;;;;;;31.35;27.93;96631.06;2087015;28;20429;-59
2022/06/15 10:41:46;;;;;;;170.03;112.40;;;;;;;31.29;27.93;96634.56;2090915;28;20424;-59
2022/06/15 10:42:54;;;;;;;154.07;106.03;;;;;;;31.30;27.91;96628.13;2084974;28;20885;-58
2022/06/15 10:43:56;;;;;;;213.27;191.40;;;;;;;31.23;28.16;96633.47;2082540;28;20438;-58
2022/06/15 10:45:01;;;;;;;195.40;174.33;;;;;;;31.32;28.28;96634.16;2084078;28;20464;-58
2022/06/15 10:46:05;;;;;;;111.93;23.40;;;;;;;31.07;27.25;96631.97;2082480;28;20526;-58
2022/06/15 10:47:36;;;;;;;111.80;23.00;;;;;;;30.64;27.30;96632.06;2077584;28;21085;-58
2022/06/15 10:48:43;;;;;;;123.20;36.23;;;;;;;30.91;27.33;96624.16;2079896;28;20434;-58
2022/06/15 10:49:55;;;;;;;112.27;25.40;;;;;;;30.21;28.03;96599.78;2083594;28;20440;-58
2022/06/15 10:51:37;;;;;;;116.73;35.40;;;;;;;31.15;26.70;96622.88;2084392;28;20944;-59
2022/06/15 10:52:43;;;;;;;106.57;17.67;;;;;;;31.37;26.44;96607.41;2074199;28;20839;-58
2022/06/15 10:53:46;;;;;;;105.40;15.73;;;;;;;31.62;26.01;96622.22;2081996;28;20817;-58
2022/06/15 11:02:38;;;;;;;112.00;20.00;;;;;;;31.39;25.49;96613.44;2079505;28;20469;-59
2022/06/15 11:03:40;;;;;;;113.50;18.10;;;;;;;31.13;25.83;96599.84;2081676;28;20438;-58
2022/06/15 11:04:48;;;;;;;115.20;25.27;;;;;;;30.71;26.45;96611.38;2079591;28;21011;-59
2022/06/15 11:05:54;;;;;;;104.70;15.00;;;;;;;31.06;26.45;96608.72;2085096;28;20781;-59
2022/06/15 11:07:08;;;;;;;108.07;16.93;;;;;;;31.53;25.75;96614.31;2084957;28;20421;-59
2022/06/15 11:08:26;;;;;;;112.57;18.97;;;;;;;31.61;26.15;96612.47;2085092;28;20440;-59
2022/06/15 11:09:33;;;;;;;106.17;15.90;;;;;;;31.66;26.06;96610.84;2078144;28;20430;-58
2022/06/15 11:10:41;;;;;;;107.57;19.40;;;;;;;32.05;26.21;96614.69;2081109;28;20575;-58
2022/06/15 11:11:42;;;;;;;110.67;18.27;;;;;;;32.06;25.78;96596.59;2085390;28;20465;-58
2022/06/15 11:12:48;;;;;;;112.50;22.00;;;;;;;32.12;25.42;96616.56;2086275;28;20437;-58
2022/06/15 11:14:15;;;;;;;111.77;27.53;;;;;;;32.36;25.05;96610.56;2086244;28;20420;-58
2022/06/15 11:15:17;;;;;;;114.03;29.90;;;;;;;32.63;24.35;96607.03;2079197;28;20799;-58
2022/06/15 11:18:02;;;;;;;108.50;15.97;;;;;;;31.27;24.57;96556.56;2083707;28;20445;-59
2022/06/15 11:19:07;;;;;;;112.97;28.60;;;;;;;31.52;25.66;96609.13;2082202;28;20422;-58
2022/06/15 11:20:49;;;;;;;106.87;19.87;;;;;;;31.52;26.27;96609.13;2084138;28;20426;-58
2022/06/15 11:21:57;;;;;;;111.90;19.13;;;;;;;31.40;25.46;96603.47;2081112;28;20917;-58
2022/06/15 11:23:09;;;;;;;109.60;21.13;;;;;;;31.54;26.30;96605.19;2084851;28;20425;-58
2022/06/15 11:24:32;;;;;;;110.73;23.93;;;;;;;31.41;26.51;96605.13;2085622;28;20433;-59
2022/06/15 11:25:44;;;;;;;107.27;20.70;;;;;;;30.75;26.40;96598.34;2085195;28;20445;-59
2022/06/15 11:26:55;;;;;;;108.07;20.40;;;;;;;30.47;26.32;96599.16;2080658;28;20435;-58
2022/06/15 11:28:02;;;;;;;121.00;28.23;;;;;;;29.99;27.32;96589.00;2082606;28;20479;-58
2022/06/15 11:29:16;;;;;;;149.30;85.70;;;;;;;30.02;27.73;96604.78;2085191;28;20785;-58
2022/06/15 11:30:40;;;;;;;139.63;76.43;;;;;;;30.44;26.49;96588.78;2081104;28;20434;-58
2022/06/15 11:31:42;;;;;;;199.07;177.27;;;;;;;30.54;27.27;96594.69;2074601;28;20463;-58
2022/06/15 11:32:44;;;;;;;162.00;113.40;;;;;;;31.22;26.40;96598.63;2075332;28;20427;-58
2022/06/15 11:34:09;;;;;;;225.57;202.53;;;;;;;31.65;26.38;96598.41;2081969;28;20945;-58
2022/06/15 11:35:13;;;;;;;127.37;51.00;;;;;;;31.65;26.20;96601.09;2082586;28;20430;-59
2022/06/15 11:36:28;;;;;;;170.20;119.93;;;;;;;31.63;26.16;96600.50;2082485;28;20925;-58
2022/06/15 11:37:41;;;;;;;131.77;61.43;;;;;;;31.76;25.85;96607.78;2080111;28;20979;-58
2022/06/15 11:38:52;;;;;;;115.97;34.50;;;;;;;31.86;25.50;96605.50;2089913;28;20441;-58
2022/06/15 11:40:05;;;;;;;105.80;15.10;;;;;;;31.74;25.40;96580.16;2089973;28;20431;-58
2022/06/15 11:41:21;;;;;;;107.77;14.83;;;;;;;31.41;25.31;96545.81;2085090;28;20433;-59
2022/06/15 11:42:24;;;;;;;107.03;15.50;;;;;;;31.63;25.26;96595.09;2082202;28;20960;-58
2022/06/15 11:43:41;;;;;;;112.90;21.07;;;;;;;31.52;25.72;96601.03;2083582;28;20607;-58
2022/06/15 11:44:44;;;;;;;110.53;24.23;;;;;;;30.49;26.58;96599.84;2081479;28;20433;-58
2022/06/15 11:46:15;;;;;;;106.67;16.33;;;;;;;30.75;26.44;96598.34;2081192;28;20458;-58
2022/06/15 11:47:22;;;;;;;105.60;14.33;;;;;;;31.10;26.15;96598.38;2079408;28;20437;-58
2022/06/15 11:48:38;;;;;;;118.30;26.77;;;;;;;31.19;26.65;96586.38;2083130;28;20441;-58
2022/06/15 11:49:47;;;;;;;137.53;50.53;;;;;;;31.91;26.02;96592.22;2079363;28;20902;-58
2022/06/15 11:50:57;;;;;;;112.00;26.10;;;;;;;31.95;26.20;96592.66;2082959;28;20445;-58
2022/06/15 11:52:24;;;;;;;135.10;72.13;;;;;;;32.53;26.09;96600.19;2081646;28;21059;-59
2022/06/15 11:53:37;;;;;;;126.93;48.37;;;;;;;33.00;25.28;96600.13;2080309;28;20779;-59
2022/06/15 11:54:54;;;;;;;120.37;34.53;;;;;;;33.27;24.93;96597.34;2082762;28;20430;-58
2022/06/15 11:56:11;;;;;;;107.50;20.83;;;;;;;33.10;24.34;96590.75;2083407;28;20913;-59
2022/06/15 11:57:21;;;;;;;114.97;33.57;;;;;;;32.97;24.82;96591.63;2074414;28;20806;-58
2022/06/15 11:58:27;;;;;;;116.87;35.97;;;;;;;32.38;24.44;96597.69;2074228;28;20427;-58
2022/06/15 11:59:42;;;;;;;120.83;37.60;;;;;;;31.50;25.03;96598.53;2078170;28;20430;-59
2022/06/15 12:01:08;;;;;;;119.87;42.47;;;;;;;31.58;25.83;96597.53;2086129;28;20425;-58
2022/06/15 12:02:30;;;;;;;113.97;32.67;;;;;;;32.12;25.22;96593.09;2082436;28;20816;-58
2022/06/15 12:04:00;;;;;;;116.90;25.47;;;;;;;32.28;25.00;96582.94;2078359;28;20458;-63
2022/06/15 12:05:24;;;;;;;109.37;22.20;;;;;;;32.40;24.36;96594.78;2083407;28;20451;-64
2022/06/15 12:06:44;;;;;;;111.50;25.00;;;;;;;31.75;25.99;96595.31;2083264;28;20456;-63
2022/06/15 12:08:15;;;;;;;106.17;19.20;;;;;;;31.56;26.07;96596.91;2081470;28;20438;-63
2022/06/15 12:09:50;;;;;;;107.97;19.73;;;;;;;31.02;26.52;96590.41;2081691;28;20422;-63
2022/06/15 12:10:57;;;;;;;112.80;30.13;;;;;;;30.85;26.30;96585.34;2078609;28;20535;-64
2022/06/15 12:13:52;;;;;;;142.80;75.60;;;;;;;30.79;26.68;96594.22;2082316;28;20944;-63
2022/06/15 12:15:26;;;;;;;144.63;88.03;;;;;;;30.93;26.12;96590.59;2083156;28;20436;-63
2022/06/15 12:16:38;;;;;;;114.57;32.50;;;;;;;31.10;25.90;96574.13;2083809;28;20427;-63
2022/06/15 12:17:46;;;;;;;147.43;71.67;;;;;;;30.25;27.15;96574.97;2084102;28;20498;-63
2022/06/15 12:18:59;;;;;;;141.60;73.60;;;;;;;30.62;26.63;96581.06;2082627;28;20423;-63
2022/06/15 12:20:14;;;;;;;111.40;25.30;;;;;;;31.47;25.74;96590.84;2082274;28;20452;-63
2022/06/15 12:21:37;;;;;;;131.80;56.17;;;;;;;31.98;26.25;96588.72;2083921;28;20457;-63
2022/06/15 12:22:47;;;;;;;135.23;63.90;;;;;;;32.11;25.04;96590.59;2081827;28;20800;-63
2022/06/15 12:24:22;;;;;;;125.23;49.37;;;;;;;32.22;25.54;96592.72;2083471;28;20436;-64
2022/06/15 12:25:41;;;;;;;117.97;29.23;;;;;;;32.79;24.95;96597.69;2081030;28;20417;-63
2022/06/15 12:27:27;;;;;;;106.87;20.13;;;;;;;32.79;24.43;96589.59;2081650;28;20436;-63
2022/06/15 12:28:42;;;;;;;106.87;17.10;;;;;;;32.39;24.77;96591.25;2080527;28;20801;-58
2022/06/15 12:29:47;;;;;;;107.83;20.40;;;;;;;32.34;25.34;96587.50;2083168;28;20823;-59
2022/06/15 12:30:57;;;;;;;106.57;19.87;;;;;;;32.76;24.83;96587.28;2084680;28;20465;-58
2022/06/15 12:33:49;;;;;;;115.27;29.77;;;;;;;33.03;24.56;96588.88;2090331;28;20803;-58
2022/06/15 12:34:53;;;;;;;110.67;28.17;;;;;;;33.28;24.09;96585.50;2084324;28;20431;-58
2022/06/15 12:36:41;;;;;;;120.50;40.90;;;;;;;33.10;24.22;96577.22;2085314;28;20791;-58
2022/06/15 12:38:19;;;;;;;116.23;34.83;;;;;;;33.42;23.53;96583.59;2051993;28;20457;-59
2022/06/15 12:40:12;;;;;;;117.60;34.60;;;;;;;33.45;23.75;96587.72;2057353;28;20916;-58
2022/06/15 12:42:43;;;;;;;108.80;23.60;;;;;;;33.51;23.54;96560.63;2055930;28;21045;-58
2022/06/15 12:43:45;;;;;;;115.57;34.80;;;;;;;33.82;23.67;96582.56;2059391;28;20958;-58
2022/06/15 12:44:53;;;;;;;119.20;38.30;;;;;;;34.19;23.20;96585.41;2058370;28;20424;-57
2022/06/15 12:46:04;;;;;;;115.73;36.60;;;;;;;34.53;23.61;96583.28;2057319;28;20981;-58
2022/06/15 12:47:12;;;;;;;111.90;31.23;;;;;;;34.40;23.27;96578.81;2055862;28;21207;-59
2022/06/15 12:48:33;;;;;;;110.20;23.87;;;;;;;34.42;22.76;96581.31;2058972;28;20460;-59
2022/06/15 12:49:53;;;;;;;110.80;26.93;;;;;;;33.06;23.65;96579.50;2059421;28;20436;-58
2022/06/15 12:51:03;;;;;;;108.17;22.77;;;;;;;33.25;23.65;96577.78;2048027;28;20470;-58
2022/06/15 12:52:22;;;;;;;108.17;19.83;;;;;;;32.09;25.30;96577.31;2049767;28;20452;-58
2022/06/15 12:53:35;;;;;;;118.20;38.53;;;;;;;33.14;24.70;96576.59;2057651;28;20511;-58
2022/06/15 12:55:01;;;;;;;126.37;40.20;;;;;;;33.60;23.76;96517.91;2059858;28;20428;-58
2022/06/15 12:56:15;;;;;;;113.50;29.87;;;;;;;34.32;23.26;96585.31;2058719;28;20451;-58
2022/06/15 12:57:37;;;;;;;124.80;45.63;;;;;;;34.06;23.78;96580.94;2054699;28;20448;-59
2022/06/15 12:58:55;;;;;;;127.50;60.77;;;;;;;34.64;23.02;96582.56;2058741;28;20451;-63
2022/06/15 13:00:06;;;;;;;102.27;16.90;;;;;;;34.71;22.39;96589.78;2057458;28;20457;-63
2022/06/15 13:01:13;;;;;;;106.50;16.40;;;;;;;34.82;22.27;96580.94;2058645;28;20436;-63
2022/06/15 13:02:30;;;;;;;101.90;12.83;;;;;;;34.31;22.98;96583.66;2056321;28;20485;-63
2022/06/15 13:03:51;;;;;;;103.43;14.37;;;;;;;34.38;22.92;96580.09;2058346;28;20436;-63
2022/06/15 13:04:58;;;;;;;104.50;13.00;;;;;;;33.39;24.01;96580.47;2035537;29;21060;-63
2022/06/15 13:06:23;;;;;;;102.90;13.57;;;;;;;34.19;23.73;96588.13;2056948;28;20887;-63
2022/06/15 13:07:28;;;;;;;102.60;12.93;;;;;;;34.45;23.29;96583.56;2054495;28;20449;-63
2022/06/15 13:08:33;;;;;;;107.80;25.77;;;;;;;34.41;23.59;96583.19;2054880;28;20432;-63
2022/06/15 13:09:35;;;;;;;121.53;48.40;;;;;;;34.57;23.46;96587.19;2055071;28;20487;-63
2022/06/15 13:10:37;;;;;;;115.90;28.77;;;;;;;34.25;23.52;96581.00;2057446;28;20427;-63
2022/06/15 13:12:07;;;;;;;106.27;11.47;;;;;;;34.27;22.97;96582.44;2059720;28;20761;-63
2022/06/15 13:13:24;;;;;;;112.73;12.20;;;;;;;34.32;23.35;96587.19;2057378;28;20452;-63